sensor_id;sensor_type;location;lat;lon;timestamp;P1;durP1;ratioP1;P2;durP2;ratioP2
29344;SDS011;16339;48.748;2.222;2022-09-12T00:00:17;11.38;;;5.20;;
29344;SDS011;16339;48.748;2.222;2022-09-12T00:02:47;11.98;;;6.22;;
29344;SDS011;16339;48.748;2.222;2022-09-12T00:05:22;11.55;;;6.13;;
29344;SDS011;16339;48.748;2.222;2022-09-12T00:10:19;9.02;;;5.45;;
29344;SDS011;16339;48.748;2.222;2022-09-12T00:12:48;9.18;;;6.18;;
29344;SDS011;16339;48.748;2.222;2022-09-12T00:15:17;12.02;;;5.82;;
29344;SDS011;16339;48.748;2.222;2022-09-12T00:17:46;11.30;;;6.20;;
29344;SDS011;16339;48.748;2.222;2022-09-12T00:20:14;12.98;;;6.78;;
29344;SDS011;16339;48.748;2.222;2022-09-12T00:22:46;8.40;;;5.28;;
29344;SDS011;16339;48.748;2.222;2022-09-12T00:25:15;8.98;;;4.70;;
29344;SDS011;16339;48.748;2.222;2022-09-12T00:27:43;9.95;;;4.72;;
29344;SDS011;16339;48.748;2.222;2022-09-12T00:30:12;13.75;;;4.82;;
29344;SDS011;16339;48.748;2.222;2022-09-12T00:32:41;8.65;;;4.40;;
29344;SDS011;16339;48.748;2.222;2022-09-12T00:35:10;10.40;;;5.43;;
29344;SDS011;16339;48.748;2.222;2022-09-12T00:37:39;9.70;;;4.90;;
29344;SDS011;16339;48.748;2.222;2022-09-12T00:40:10;9.65;;;5.85;;
29344;SDS011;16339;48.748;2.222;2022-09-12T00:42:39;21.13;;;6.03;;
29344;SDS011;16339;48.748;2.222;2022-09-12T00:45:09;11.95;;;5.95;;
29344;SDS011;16339;48.748;2.222;2022-09-12T00:47:49;18.48;;;6.28;;
29344;SDS011;16339;48.748;2.222;2022-09-12T00:50:18;11.90;;;5.85;;
29344;SDS011;16339;48.748;2.222;2022-09-12T00:52:47;9.25;;;5.47;;
29344;SDS011;16339;48.748;2.222;2022-09-12T00:55:22;12.43;;;5.18;;
29344;SDS011;16339;48.748;2.222;2022-09-12T00:57:54;11.18;;;5.30;;
29344;SDS011;16339;48.748;2.222;2022-09-12T01:00:27;18.80;;;6.30;;
29344;SDS011;16339;48.748;2.222;2022-09-12T01:02:57;15.40;;;5.60;;
29344;SDS011;16339;48.748;2.222;2022-09-12T01:05:29;11.52;;;5.95;;
29344;SDS011;16339;48.748;2.222;2022-09-12T01:08:01;14.23;;;5.65;;
29344;SDS011;16339;48.748;2.222;2022-09-12T01:10:34;10.98;;;5.70;;
29344;SDS011;16339;48.748;2.222;2022-09-12T01:13:05;13.27;;;6.10;;
29344;SDS011;16339;48.748;2.222;2022-09-12T01:15:35;17.02;;;6.22;;
29344;SDS011;16339;48.748;2.222;2022-09-12T01:18:08;16.52;;;6.13;;
29344;SDS011;16339;48.748;2.222;2022-09-12T01:20:47;11.75;;;5.50;;
29344;SDS011;16339;48.748;2.222;2022-09-12T01:29:30;15.60;;;6.55;;
29344;SDS011;16339;48.748;2.222;2022-09-12T01:32:14;8.60;;;6.72;;
29344;SDS011;16339;48.748;2.222;2022-09-12T01:34:51;12.73;;;6.65;;
29344;SDS011;16339;48.748;2.222;2022-09-12T01:37:28;18.10;;;7.10;;
29344;SDS011;16339;48.748;2.222;2022-09-12T01:40:05;15.93;;;7.82;;
29344;SDS011;16339;48.748;2.222;2022-09-12T01:42:42;16.55;;;7.75;;
29344;SDS011;16339;48.748;2.222;2022-09-12T01:45:15;20.05;;;8.73;;
29344;SDS011;16339;48.748;2.222;2022-09-12T01:47:52;22.15;;;7.63;;
29344;SDS011;16339;48.748;2.222;2022-09-12T01:50:26;14.18;;;7.10;;
29344;SDS011;16339;48.748;2.222;2022-09-12T01:52:59;14.23;;;7.53;;
29344;SDS011;16339;48.748;2.222;2022-09-12T01:55:34;18.83;;;7.60;;
29344;SDS011;16339;48.748;2.222;2022-09-12T01:58:07;12.23;;;7.05;;
29344;SDS011;16339;48.748;2.222;2022-09-12T02:00:41;17.35;;;7.18;;
29344;SDS011;16339;48.748;2.222;2022-09-12T02:03:17;11.40;;;7.50;;
29344;SDS011;16339;48.748;2.222;2022-09-12T02:05:52;10.82;;;6.47;;
29344;SDS011;16339;48.748;2.222;2022-09-12T02:08:24;12.93;;;7.05;;
29344;SDS011;16339;48.748;2.222;2022-09-12T02:10:56;14.43;;;6.82;;
29344;SDS011;16339;48.748;2.222;2022-09-12T02:13:31;9.38;;;6.50;;
29344;SDS011;16339;48.748;2.222;2022-09-12T02:16:04;12.60;;;6.95;;
29344;SDS011;16339;48.748;2.222;2022-09-12T02:18:38;10.77;;;6.70;;
29344;SDS011;16339;48.748;2.222;2022-09-12T02:21:11;15.55;;;7.45;;
29344;SDS011;16339;48.748;2.222;2022-09-12T02:23:42;12.98;;;6.82;;
29344;SDS011;16339;48.748;2.222;2022-09-12T02:26:14;15.80;;;7.60;;
29344;SDS011;16339;48.748;2.222;2022-09-12T02:28:50;14.90;;;7.15;;
29344;SDS011;16339;48.748;2.222;2022-09-12T02:31:20;11.32;;;6.70;;
29344;SDS011;16339;48.748;2.222;2022-09-12T02:33:59;13.07;;;7.68;;
29344;SDS011;16339;48.748;2.222;2022-09-12T02:36:37;13.80;;;7.07;;
29344;SDS011;16339;48.748;2.222;2022-09-12T02:39:15;19.25;;;7.25;;
29344;SDS011;16339;48.748;2.222;2022-09-12T02:41:45;11.32;;;7.10;;
29344;SDS011;16339;48.748;2.222;2022-09-12T02:44:14;11.52;;;6.35;;
29344;SDS011;16339;48.748;2.222;2022-09-12T02:46:43;14.80;;;6.47;;
29344;SDS011;16339;48.748;2.222;2022-09-12T02:49:18;11.68;;;6.53;;
29344;SDS011;16339;48.748;2.222;2022-09-12T02:51:47;11.00;;;6.75;;
29344;SDS011;16339;48.748;2.222;2022-09-12T02:54:17;10.70;;;5.88;;
29344;SDS011;16339;48.748;2.222;2022-09-12T02:56:46;10.68;;;6.20;;
29344;SDS011;16339;48.748;2.222;2022-09-12T02:59:16;8.35;;;5.75;;
29344;SDS011;16339;48.748;2.222;2022-09-12T03:01:57;7.85;;;5.70;;
29344;SDS011;16339;48.748;2.222;2022-09-12T03:04:44;17.17;;;6.22;;
29344;SDS011;16339;48.748;2.222;2022-09-12T03:07:23;10.35;;;6.38;;
29344;SDS011;16339;48.748;2.222;2022-09-12T03:10:06;11.90;;;5.97;;
29344;SDS011;16339;48.748;2.222;2022-09-12T03:12:45;11.55;;;6.68;;
29344;SDS011;16339;48.748;2.222;2022-09-12T03:15:29;15.13;;;7.32;;
29344;SDS011;16339;48.748;2.222;2022-09-12T03:18:19;12.13;;;6.10;;
29344;SDS011;16339;48.748;2.222;2022-09-12T03:21:01;12.27;;;6.18;;
29344;SDS011;16339;48.748;2.222;2022-09-12T03:23:36;13.60;;;6.45;;
29344;SDS011;16339;48.748;2.222;2022-09-12T03:26:12;18.17;;;6.55;;
29344;SDS011;16339;48.748;2.222;2022-09-12T03:28:48;11.40;;;5.28;;
29344;SDS011;16339;48.748;2.222;2022-09-12T03:31:18;15.80;;;5.85;;
29344;SDS011;16339;48.748;2.222;2022-09-12T03:33:47;11.90;;;6.35;;
29344;SDS011;16339;48.748;2.222;2022-09-12T03:36:19;13.40;;;7.15;;
29344;SDS011;16339;48.748;2.222;2022-09-12T03:38:49;13.70;;;7.72;;
29344;SDS011;16339;48.748;2.222;2022-09-12T03:41:18;15.77;;;6.40;;
29344;SDS011;16339;48.748;2.222;2022-09-12T03:43:48;9.63;;;5.75;;
29344;SDS011;16339;48.748;2.222;2022-09-12T03:46:16;9.55;;;6.10;;
29344;SDS011;16339;48.748;2.222;2022-09-12T03:48:45;10.93;;;5.93;;
29344;SDS011;16339;48.748;2.222;2022-09-12T03:51:14;13.75;;;5.45;;
29344;SDS011;16339;48.748;2.222;2022-09-12T03:53:47;9.43;;;5.82;;
29344;SDS011;16339;48.748;2.222;2022-09-12T03:56:16;13.23;;;6.15;;
29344;SDS011;16339;48.748;2.222;2022-09-12T03:58:45;9.57;;;6.03;;
29344;SDS011;16339;48.748;2.222;2022-09-12T04:01:15;8.15;;;5.93;;
29344;SDS011;16339;48.748;2.222;2022-09-12T04:03:45;12.52;;;6.47;;
29344;SDS011;16339;48.748;2.222;2022-09-12T04:06:16;13.67;;;6.37;;
29344;SDS011;16339;48.748;2.222;2022-09-12T04:08:49;11.05;;;6.25;;
29344;SDS011;16339;48.748;2.222;2022-09-12T04:11:20;9.63;;;6.10;;
29344;SDS011;16339;48.748;2.222;2022-09-12T04:13:49;14.50;;;6.13;;
29344;SDS011;16339;48.748;2.222;2022-09-12T04:16:18;11.23;;;6.00;;
29344;SDS011;16339;48.748;2.222;2022-09-12T04:18:47;13.93;;;6.30;;
29344;SDS011;16339;48.748;2.222;2022-09-12T04:21:17;12.05;;;5.90;;
29344;SDS011;16339;48.748;2.222;2022-09-12T04:23:49;10.88;;;6.32;;
29344;SDS011;16339;48.748;2.222;2022-09-12T04:26:18;8.95;;;5.60;;
29344;SDS011;16339;48.748;2.222;2022-09-12T04:28:51;12.63;;;5.68;;
29344;SDS011;16339;48.748;2.222;2022-09-12T04:31:22;10.50;;;5.50;;
29344;SDS011;16339;48.748;2.222;2022-09-12T04:33:54;13.30;;;5.38;;
29344;SDS011;16339;48.748;2.222;2022-09-12T04:36:25;10.88;;;5.45;;
29344;SDS011;16339;48.748;2.222;2022-09-12T04:38:57;9.70;;;5.63;;
29344;SDS011;16339;48.748;2.222;2022-09-12T04:41:28;15.45;;;5.53;;
29344;SDS011;16339;48.748;2.222;2022-09-12T04:43:59;9.50;;;5.78;;
29344;SDS011;16339;48.748;2.222;2022-09-12T04:46:29;15.13;;;7.10;;
29344;SDS011;16339;48.748;2.222;2022-09-12T04:49:00;13.57;;;6.13;;
29344;SDS011;16339;48.748;2.222;2022-09-12T04:51:30;14.43;;;7.15;;
29344;SDS011;16339;48.748;2.222;2022-09-12T04:54:03;14.88;;;6.72;;
29344;SDS011;16339;48.748;2.222;2022-09-12T04:56:35;16.13;;;8.15;;
29344;SDS011;16339;48.748;2.222;2022-09-12T05:01:34;9.88;;;6.35;;
29344;SDS011;16339;48.748;2.222;2022-09-12T05:04:03;12.70;;;7.07;;
29344;SDS011;16339;48.748;2.222;2022-09-12T05:06:34;11.13;;;6.05;;
29344;SDS011;16339;48.748;2.222;2022-09-12T05:11:38;15.63;;;6.68;;
29344;SDS011;16339;48.748;2.222;2022-09-12T05:14:08;15.88;;;6.10;;
29344;SDS011;16339;48.748;2.222;2022-09-12T05:16:37;12.93;;;6.70;;
29344;SDS011;16339;48.748;2.222;2022-09-12T05:19:08;12.23;;;5.90;;
29344;SDS011;16339;48.748;2.222;2022-09-12T05:21:38;10.20;;;6.10;;
29344;SDS011;16339;48.748;2.222;2022-09-12T05:24:10;15.65;;;7.00;;
29344;SDS011;16339;48.748;2.222;2022-09-12T05:26:39;12.20;;;5.97;;
29344;SDS011;16339;48.748;2.222;2022-09-12T05:29:08;11.55;;;6.28;;
29344;SDS011;16339;48.748;2.222;2022-09-12T05:31:37;14.25;;;6.47;;
29344;SDS011;16339;48.748;2.222;2022-09-12T05:34:06;12.57;;;6.53;;
29344;SDS011;16339;48.748;2.222;2022-09-12T05:36:35;12.95;;;6.45;;
29344;SDS011;16339;48.748;2.222;2022-09-12T05:39:04;9.20;;;5.88;;
29344;SDS011;16339;48.748;2.222;2022-09-12T05:41:36;18.38;;;7.05;;
29344;SDS011;16339;48.748;2.222;2022-09-12T05:44:06;15.90;;;7.10;;
29344;SDS011;16339;48.748;2.222;2022-09-12T05:46:39;13.50;;;6.68;;
29344;SDS011;16339;48.748;2.222;2022-09-12T05:49:09;12.73;;;6.60;;
29344;SDS011;16339;48.748;2.222;2022-09-12T05:51:40;17.20;;;6.53;;
29344;SDS011;16339;48.748;2.222;2022-09-12T05:54:11;14.90;;;7.22;;
29344;SDS011;16339;48.748;2.222;2022-09-12T05:56:43;16.33;;;7.63;;
29344;SDS011;16339;48.748;2.222;2022-09-12T05:59:14;15.45;;;6.80;;
29344;SDS011;16339;48.748;2.222;2022-09-12T06:01:44;16.02;;;7.10;;
29344;SDS011;16339;48.748;2.222;2022-09-12T06:04:13;13.10;;;6.65;;
29344;SDS011;16339;48.748;2.222;2022-09-12T06:06:43;14.32;;;7.32;;
29344;SDS011;16339;48.748;2.222;2022-09-12T06:09:13;15.23;;;8.07;;
29344;SDS011;16339;48.748;2.222;2022-09-12T06:11:45;14.68;;;7.30;;
29344;SDS011;16339;48.748;2.222;2022-09-12T06:14:16;14.55;;;7.45;;
29344;SDS011;16339;48.748;2.222;2022-09-12T06:16:45;13.95;;;7.43;;
29344;SDS011;16339;48.748;2.222;2022-09-12T06:19:15;14.48;;;7.20;;
29344;SDS011;16339;48.748;2.222;2022-09-12T06:21:44;16.63;;;8.05;;
29344;SDS011;16339;48.748;2.222;2022-09-12T06:24:14;16.27;;;8.10;;
29344;SDS011;16339;48.748;2.222;2022-09-12T06:26:43;13.93;;;7.60;;
29344;SDS011;16339;48.748;2.222;2022-09-12T06:29:17;12.48;;;7.22;;
29344;SDS011;16339;48.748;2.222;2022-09-12T06:31:46;14.73;;;7.63;;
29344;SDS011;16339;48.748;2.222;2022-09-12T06:34:15;12.57;;;7.72;;
29344;SDS011;16339;48.748;2.222;2022-09-12T06:36:44;14.30;;;7.95;;
29344;SDS011;16339;48.748;2.222;2022-09-12T06:39:15;15.10;;;8.05;;
29344;SDS011;16339;48.748;2.222;2022-09-12T06:41:48;13.38;;;7.57;;
29344;SDS011;16339;48.748;2.222;2022-09-12T06:44:19;11.95;;;7.60;;
29344;SDS011;16339;48.748;2.222;2022-09-12T06:46:49;12.20;;;7.53;;
29344;SDS011;16339;48.748;2.222;2022-09-12T06:49:18;12.90;;;8.63;;
29344;SDS011;16339;48.748;2.222;2022-09-12T06:51:46;18.35;;;9.30;;
29344;SDS011;16339;48.748;2.222;2022-09-12T06:54:15;19.40;;;9.20;;
29344;SDS011;16339;48.748;2.222;2022-09-12T06:56:47;19.58;;;8.85;;
29344;SDS011;16339;48.748;2.222;2022-09-12T06:59:15;20.95;;;9.25;;
29344;SDS011;16339;48.748;2.222;2022-09-12T07:01:44;15.68;;;10.15;;
29344;SDS011;16339;48.748;2.222;2022-09-12T07:04:13;24.73;;;10.35;;
29344;SDS011;16339;48.748;2.222;2022-09-12T07:06:42;15.65;;;9.73;;
29344;SDS011;16339;48.748;2.222;2022-09-12T07:09:11;19.73;;;9.90;;
29344;SDS011;16339;48.748;2.222;2022-09-12T07:11:41;17.93;;;9.93;;
29344;SDS011;16339;48.748;2.222;2022-09-12T07:14:14;17.27;;;10.50;;
29344;SDS011;16339;48.748;2.222;2022-09-12T07:16:42;18.75;;;10.57;;
29344;SDS011;16339;48.748;2.222;2022-09-12T07:19:11;14.25;;;10.65;;
29344;SDS011;16339;48.748;2.222;2022-09-12T07:21:40;15.93;;;11.00;;
29344;SDS011;16339;48.748;2.222;2022-09-12T07:24:08;17.92;;;11.27;;
29344;SDS011;16339;48.748;2.222;2022-09-12T07:26:40;21.35;;;11.23;;
29344;SDS011;16339;48.748;2.222;2022-09-12T07:29:14;24.30;;;11.85;;
29344;SDS011;16339;48.748;2.222;2022-09-12T07:31:44;17.92;;;11.98;;
29344;SDS011;16339;48.748;2.222;2022-09-12T07:34:12;20.88;;;11.68;;
29344;SDS011;16339;48.748;2.222;2022-09-12T07:36:41;19.80;;;12.15;;
29344;SDS011;16339;48.748;2.222;2022-09-12T07:39:10;23.27;;;11.50;;
29344;SDS011;16339;48.748;2.222;2022-09-12T07:41:39;21.77;;;10.85;;
29344;SDS011;16339;48.748;2.222;2022-09-12T07:44:08;21.23;;;10.55;;
29344;SDS011;16339;48.748;2.222;2022-09-12T07:46:39;18.10;;;10.80;;
29344;SDS011;16339;48.748;2.222;2022-09-12T07:49:08;19.20;;;10.30;;
29344;SDS011;16339;48.748;2.222;2022-09-12T07:51:39;18.23;;;10.27;;
29344;SDS011;16339;48.748;2.222;2022-09-12T07:54:08;19.83;;;10.45;;
29344;SDS011;16339;48.748;2.222;2022-09-12T07:56:37;18.38;;;11.32;;
29344;SDS011;16339;48.748;2.222;2022-09-12T07:59:06;15.98;;;10.25;;
29344;SDS011;16339;48.748;2.222;2022-09-12T08:01:34;19.40;;;10.13;;
29344;SDS011;16339;48.748;2.222;2022-09-12T08:04:06;19.27;;;9.98;;
29344;SDS011;16339;48.748;2.222;2022-09-12T08:06:35;19.73;;;9.73;;
29344;SDS011;16339;48.748;2.222;2022-09-12T08:09:04;22.13;;;9.10;;
29344;SDS011;16339;48.748;2.222;2022-09-12T08:11:36;16.90;;;9.13;;
29344;SDS011;16339;48.748;2.222;2022-09-12T08:14:04;16.92;;;9.65;;
29344;SDS011;16339;48.748;2.222;2022-09-12T08:16:33;14.68;;;8.80;;
29344;SDS011;16339;48.748;2.222;2022-09-12T08:19:02;11.90;;;8.48;;
29344;SDS011;16339;48.748;2.222;2022-09-12T08:21:34;11.65;;;8.10;;
29344;SDS011;16339;48.748;2.222;2022-09-12T08:24:03;11.35;;;7.72;;
29344;SDS011;16339;48.748;2.222;2022-09-12T08:26:33;25.10;;;7.67;;
29344;SDS011;16339;48.748;2.222;2022-09-12T08:29:02;13.85;;;7.53;;
29344;SDS011;16339;48.748;2.222;2022-09-12T08:31:31;11.82;;;6.80;;
29344;SDS011;16339;48.748;2.222;2022-09-12T08:34:01;13.95;;;6.18;;
29344;SDS011;16339;48.748;2.222;2022-09-12T08:36:33;9.40;;;6.05;;
29344;SDS011;16339;48.748;2.222;2022-09-12T08:39:03;10.45;;;5.97;;
29344;SDS011;16339;48.748;2.222;2022-09-12T08:41:35;12.10;;;6.60;;
29344;SDS011;16339;48.748;2.222;2022-09-12T08:44:09;12.13;;;6.03;;
29344;SDS011;16339;48.748;2.222;2022-09-12T08:47:14;8.95;;;5.18;;
29344;SDS011;16339;48.748;2.222;2022-09-12T08:49:50;9.43;;;4.93;;
29344;SDS011;16339;48.748;2.222;2022-09-12T08:52:29;15.10;;;6.10;;
29344;SDS011;16339;48.748;2.222;2022-09-12T08:55:04;8.77;;;5.45;;
29344;SDS011;16339;48.748;2.222;2022-09-12T08:57:39;11.32;;;5.35;;
29344;SDS011;16339;48.748;2.222;2022-09-12T09:00:11;13.57;;;5.22;;
29344;SDS011;16339;48.748;2.222;2022-09-12T09:02:58;10.80;;;5.93;;
29344;SDS011;16339;48.748;2.222;2022-09-12T09:05:44;8.77;;;5.05;;
29344;SDS011;16339;48.748;2.222;2022-09-12T09:08:27;10.38;;;5.07;;
29344;SDS011;16339;48.748;2.222;2022-09-12T09:11:06;9.55;;;5.35;;
29344;SDS011;16339;48.748;2.222;2022-09-12T09:13:52;9.57;;;4.72;;
29344;SDS011;16339;48.748;2.222;2022-09-12T09:16:42;10.43;;;4.50;;
29344;SDS011;16339;48.748;2.222;2022-09-12T09:21:46;8.95;;;4.30;;
29344;SDS011;16339;48.748;2.222;2022-09-12T09:24:22;8.48;;;3.83;;
29344;SDS011;16339;48.748;2.222;2022-09-12T09:26:55;10.27;;;4.45;;
29344;SDS011;16339;48.748;2.222;2022-09-12T09:29:28;11.20;;;4.07;;
29344;SDS011;16339;48.748;2.222;2022-09-12T09:32:02;8.80;;;4.03;;
29344;SDS011;16339;48.748;2.222;2022-09-12T09:34:40;7.47;;;3.75;;
29344;SDS011;16339;48.748;2.222;2022-09-12T09:37:11;8.05;;;3.60;;
29344;SDS011;16339;48.748;2.222;2022-09-12T09:39:51;8.35;;;4.00;;
29344;SDS011;16339;48.748;2.222;2022-09-12T09:42:29;13.15;;;3.78;;
29344;SDS011;16339;48.748;2.222;2022-09-12T09:45:10;7.32;;;3.90;;
29344;SDS011;16339;48.748;2.222;2022-09-12T09:47:43;5.97;;;3.28;;
29344;SDS011;16339;48.748;2.222;2022-09-12T09:50:13;8.02;;;3.80;;
29344;SDS011;16339;48.748;2.222;2022-09-12T09:52:43;6.57;;;3.55;;
29344;SDS011;16339;48.748;2.222;2022-09-12T09:55:17;11.27;;;4.03;;
29344;SDS011;16339;48.748;2.222;2022-09-12T09:57:48;19.92;;;3.42;;
29344;SDS011;16339;48.748;2.222;2022-09-12T10:00:22;7.70;;;3.13;;
29344;SDS011;16339;48.748;2.222;2022-09-12T10:03:02;5.53;;;3.25;;
29344;SDS011;16339;48.748;2.222;2022-09-12T10:05:34;4.35;;;2.88;;
29344;SDS011;16339;48.748;2.222;2022-09-12T10:08:18;5.43;;;2.97;;
29344;SDS011;16339;48.748;2.222;2022-09-12T10:10:57;3.85;;;2.80;;
29344;SDS011;16339;48.748;2.222;2022-09-12T10:13:30;9.55;;;2.85;;
29344;SDS011;16339;48.748;2.222;2022-09-12T10:16:03;10.15;;;3.55;;
29344;SDS011;16339;48.748;2.222;2022-09-12T10:18:38;10.40;;;3.25;;
29344;SDS011;16339;48.748;2.222;2022-09-12T10:21:13;8.32;;;3.00;;
29344;SDS011;16339;48.748;2.222;2022-09-12T10:23:50;4.10;;;2.80;;
29344;SDS011;16339;48.748;2.222;2022-09-12T10:26:32;6.03;;;3.38;;
29344;SDS011;16339;48.748;2.222;2022-09-12T10:29:09;7.93;;;3.33;;
29344;SDS011;16339;48.748;2.222;2022-09-12T10:31:42;7.80;;;3.20;;
29344;SDS011;16339;48.748;2.222;2022-09-12T10:34:19;7.60;;;3.17;;
29344;SDS011;16339;48.748;2.222;2022-09-12T10:36:53;6.25;;;2.70;;
29344;SDS011;16339;48.748;2.222;2022-09-12T10:39:26;3.30;;;2.58;;
29344;SDS011;16339;48.748;2.222;2022-09-12T10:41:58;7.25;;;2.22;;
29344;SDS011;16339;48.748;2.222;2022-09-12T10:44:28;4.82;;;1.70;;
29344;SDS011;16339;48.748;2.222;2022-09-12T10:46:58;5.38;;;1.85;;
29344;SDS011;16339;48.748;2.222;2022-09-12T10:49:45;2.85;;;1.67;;
29344;SDS011;16339;48.748;2.222;2022-09-12T10:52:16;2.47;;;1.60;;
29344;SDS011;16339;48.748;2.222;2022-09-12T10:54:48;4.97;;;1.77;;
29344;SDS011;16339;48.748;2.222;2022-09-12T11:00:14;2.33;;;1.65;;
29344;SDS011;16339;48.748;2.222;2022-09-12T11:02:56;3.53;;;1.60;;
29344;SDS011;16339;48.748;2.222;2022-09-12T11:05:37;2.92;;;1.40;;
29344;SDS011;16339;48.748;2.222;2022-09-12T11:11:27;7.57;;;1.73;;
29344;SDS011;16339;48.748;2.222;2022-09-12T11:14:12;3.90;;;1.75;;
29344;SDS011;16339;48.748;2.222;2022-09-12T11:16:52;3.00;;;1.50;;
29344;SDS011;16339;48.748;2.222;2022-09-12T11:19:33;4.00;;;1.50;;
29344;SDS011;16339;48.748;2.222;2022-09-12T11:22:26;3.22;;;1.27;;
29344;SDS011;16339;48.748;2.222;2022-09-12T11:25:09;3.40;;;1.88;;
29344;SDS011;16339;48.748;2.222;2022-09-12T11:27:57;2.90;;;1.55;;
29344;SDS011;16339;48.748;2.222;2022-09-12T11:30:50;4.35;;;1.55;;
29344;SDS011;16339;48.748;2.222;2022-09-12T11:33:40;3.65;;;1.85;;
29344;SDS011;16339;48.748;2.222;2022-09-12T11:36:14;3.50;;;1.73;;
29344;SDS011;16339;48.748;2.222;2022-09-12T11:41:29;2.70;;;1.58;;
29344;SDS011;16339;48.748;2.222;2022-09-12T11:44:00;1.85;;;1.67;;
29344;SDS011;16339;48.748;2.222;2022-09-12T11:46:38;3.60;;;1.60;;
29344;SDS011;16339;48.748;2.222;2022-09-12T11:49:15;4.65;;;1.45;;
29344;SDS011;16339;48.748;2.222;2022-09-12T11:51:49;2.78;;;1.70;;
29344;SDS011;16339;48.748;2.222;2022-09-12T11:54:24;5.47;;;1.70;;
29344;SDS011;16339;48.748;2.222;2022-09-12T11:57:00;5.55;;;2.30;;
29344;SDS011;16339;48.748;2.222;2022-09-12T11:59:39;3.47;;;1.45;;
29344;SDS011;16339;48.748;2.222;2022-09-12T12:02:16;6.68;;;2.70;;
29344;SDS011;16339;48.748;2.222;2022-09-12T12:04:55;4.13;;;2.65;;
29344;SDS011;16339;48.748;2.222;2022-09-12T12:07:33;5.03;;;1.95;;
29344;SDS011;16339;48.748;2.222;2022-09-12T12:10:20;4.63;;;1.58;;
29344;SDS011;16339;48.748;2.222;2022-09-12T12:12:52;3.58;;;1.60;;
29344;SDS011;16339;48.748;2.222;2022-09-12T12:15:23;1.50;;;1.40;;
29344;SDS011;16339;48.748;2.222;2022-09-12T12:20:35;3.72;;;1.88;;
29344;SDS011;16339;48.748;2.222;2022-09-12T12:23:04;3.40;;;1.60;;
29344;SDS011;16339;48.748;2.222;2022-09-12T12:25:37;1.63;;;1.50;;
29344;SDS011;16339;48.748;2.222;2022-09-12T12:28:09;4.82;;;1.60;;
29344;SDS011;16339;48.748;2.222;2022-09-12T12:36:38;3.60;;;1.60;;
29344;SDS011;16339;48.748;2.222;2022-09-12T12:48:17;7.82;;;1.60;;
29344;SDS011;16339;48.748;2.222;2022-09-12T12:50:48;4.80;;;1.50;;
29344;SDS011;16339;48.748;2.222;2022-09-12T12:55:49;1.90;;;1.30;;
29344;SDS011;16339;48.748;2.222;2022-09-12T12:58:25;2.92;;;1.58;;
29344;SDS011;16339;48.748;2.222;2022-09-12T13:01:03;5.15;;;1.60;;
29344;SDS011;16339;48.748;2.222;2022-09-12T13:03:38;2.08;;;1.30;;
29344;SDS011;16339;48.748;2.222;2022-09-12T13:06:21;2.33;;;1.60;;
29344;SDS011;16339;48.748;2.222;2022-09-12T13:09:00;2.53;;;1.40;;
29344;SDS011;16339;48.748;2.222;2022-09-12T13:11:32;2.03;;;1.27;;
29344;SDS011;16339;48.748;2.222;2022-09-12T13:14:04;3.65;;;1.30;;
29344;SDS011;16339;48.748;2.222;2022-09-12T13:16:35;4.07;;;1.43;;
29344;SDS011;16339;48.748;2.222;2022-09-12T13:19:05;2.55;;;1.35;;
29344;SDS011;16339;48.748;2.222;2022-09-12T13:21:52;2.58;;;1.10;;
29344;SDS011;16339;48.748;2.222;2022-09-12T13:24:22;2.85;;;1.42;;
29344;SDS011;16339;48.748;2.222;2022-09-12T13:26:51;7.35;;;1.10;;
29344;SDS011;16339;48.748;2.222;2022-09-12T13:29:22;7.32;;;1.40;;
29344;SDS011;16339;48.748;2.222;2022-09-12T13:31:52;4.90;;;1.90;;
29344;SDS011;16339;48.748;2.222;2022-09-12T13:34:28;5.65;;;2.00;;
29344;SDS011;16339;48.748;2.222;2022-09-12T13:37:10;2.83;;;1.40;;
29344;SDS011;16339;48.748;2.222;2022-09-12T13:39:59;1.10;;;1.00;;
29344;SDS011;16339;48.748;2.222;2022-09-12T13:42:37;2.20;;;1.10;;
29344;SDS011;16339;48.748;2.222;2022-09-12T13:45:10;3.60;;;1.27;;
29344;SDS011;16339;48.748;2.222;2022-09-12T13:47:42;4.60;;;1.35;;
29344;SDS011;16339;48.748;2.222;2022-09-12T13:50:15;6.90;;;1.40;;
29344;SDS011;16339;48.748;2.222;2022-09-12T13:52:54;3.58;;;1.17;;
29344;SDS011;16339;48.748;2.222;2022-09-12T13:55:27;2.10;;;1.27;;
29344;SDS011;16339;48.748;2.222;2022-09-12T13:57:58;3.00;;;1.20;;
29344;SDS011;16339;48.748;2.222;2022-09-12T14:00:28;11.90;;;1.40;;
29344;SDS011;16339;48.748;2.222;2022-09-12T14:02:59;3.42;;;1.02;;
29344;SDS011;16339;48.748;2.222;2022-09-12T14:05:40;2.67;;;1.10;;
29344;SDS011;16339;48.748;2.222;2022-09-12T14:08:14;2.47;;;1.23;;
29344;SDS011;16339;48.748;2.222;2022-09-12T14:10:44;4.03;;;0.90;;
29344;SDS011;16339;48.748;2.222;2022-09-12T14:13:15;4.15;;;1.05;;
29344;SDS011;16339;48.748;2.222;2022-09-12T14:15:48;1.92;;;0.90;;
29344;SDS011;16339;48.748;2.222;2022-09-12T14:18:22;8.38;;;1.10;;
29344;SDS011;16339;48.748;2.222;2022-09-12T14:20:53;2.90;;;1.05;;
29344;SDS011;16339;48.748;2.222;2022-09-12T14:23:27;2.35;;;0.77;;
29344;SDS011;16339;48.748;2.222;2022-09-12T14:25:59;6.10;;;1.00;;
29344;SDS011;16339;48.748;2.222;2022-09-12T14:28:33;4.07;;;0.88;;
29344;SDS011;16339;48.748;2.222;2022-09-12T14:31:03;7.25;;;0.80;;
29344;SDS011;16339;48.748;2.222;2022-09-12T14:33:33;5.38;;;0.80;;
29344;SDS011;16339;48.748;2.222;2022-09-12T14:38:49;2.05;;;0.80;;
29344;SDS011;16339;48.748;2.222;2022-09-12T14:41:21;1.60;;;0.90;;
29344;SDS011;16339;48.748;2.222;2022-09-12T14:43:54;3.95;;;1.10;;
29344;SDS011;16339;48.748;2.222;2022-09-12T14:46:26;4.10;;;0.70;;
29344;SDS011;16339;48.748;2.222;2022-09-12T14:48:59;5.00;;;0.80;;
29344;SDS011;16339;48.748;2.222;2022-09-12T14:51:33;0.95;;;0.70;;
29344;SDS011;16339;48.748;2.222;2022-09-12T14:54:20;2.40;;;0.82;;
29344;SDS011;16339;48.748;2.222;2022-09-12T14:57:03;1.40;;;0.77;;
29344;SDS011;16339;48.748;2.222;2022-09-12T14:59:37;2.78;;;0.90;;
29344;SDS011;16339;48.748;2.222;2022-09-12T15:02:21;1.05;;;0.60;;
29344;SDS011;16339;48.748;2.222;2022-09-12T15:04:53;2.13;;;0.90;;
29344;SDS011;16339;48.748;2.222;2022-09-12T15:07:42;4.20;;;0.70;;
29344;SDS011;16339;48.748;2.222;2022-09-12T15:10:21;3.40;;;0.80;;
29344;SDS011;16339;48.748;2.222;2022-09-12T15:15:44;0.77;;;0.60;;
29344;SDS011;16339;48.748;2.222;2022-09-12T15:20:44;0.80;;;0.80;;
29344;SDS011;16339;48.748;2.222;2022-09-12T15:23:16;1.50;;;0.70;;
29344;SDS011;16339;48.748;2.222;2022-09-12T15:25:50;2.08;;;0.90;;
29344;SDS011;16339;48.748;2.222;2022-09-12T15:28:22;1.42;;;0.65;;
29344;SDS011;16339;48.748;2.222;2022-09-12T15:30:52;2.47;;;0.63;;
29344;SDS011;16339;48.748;2.222;2022-09-12T15:35:51;4.63;;;0.95;;
29344;SDS011;16339;48.748;2.222;2022-09-12T15:38:20;1.23;;;0.73;;
29344;SDS011;16339;48.748;2.222;2022-09-12T15:40:52;0.70;;;0.70;;
29344;SDS011;16339;48.748;2.222;2022-09-12T15:43:21;1.33;;;0.80;;
29344;SDS011;16339;48.748;2.222;2022-09-12T15:45:50;3.28;;;0.68;;
29344;SDS011;16339;48.748;2.222;2022-09-12T15:48:19;0.95;;;0.70;;
29344;SDS011;16339;48.748;2.222;2022-09-12T15:50:48;0.80;;;0.63;;
29344;SDS011;16339;48.748;2.222;2022-09-12T15:53:17;1.33;;;0.47;;
29344;SDS011;16339;48.748;2.222;2022-09-12T15:55:45;0.75;;;0.50;;
29344;SDS011;16339;48.748;2.222;2022-09-12T15:58:17;2.97;;;0.82;;
29344;SDS011;16339;48.748;2.222;2022-09-12T16:00:46;0.60;;;0.60;;
29344;SDS011;16339;48.748;2.222;2022-09-12T16:03:18;1.25;;;0.68;;
29344;SDS011;16339;48.748;2.222;2022-09-12T16:05:49;1.10;;;0.65;;
29344;SDS011;16339;48.748;2.222;2022-09-12T16:08:22;3.92;;;0.80;;
29344;SDS011;16339;48.748;2.222;2022-09-12T16:10:51;1.38;;;0.65;;